Terminal Aerodrome Forecast
Issued by NWS Albany, NY

Home | Current Version | Previous Version | Text Only | Print | Product List | Glossary On
Versions: 1 2 3 4 5 6 7 8 9 10 11 12 13 14
352
FTUS41 KALY 231123
TAFALB
TAF
KALB 231123Z 2312/2412 20003KT P6SM FEW050 BKN070
     FM231500 18006KT P6SM BKN045
     FM231800 18011KT P6SM SCT045
     FM240600 VRB03KT P6SM BKN025=

USA.gov is the U.S. government's official web portal to all federal, state and local government web resources and services.